Main page
METAR-TAF:

METAR-TAF

Airports :

Olsztyn-Mazury Airport

Olsztyn, Poland

latitude: 53-28-55N, longitude: 20-56-16E, elevation: 141 m

Current weather observation

The report was made 12 hours and 40 minutes ago, at 15:00 UTC
Wind 5 kt from the West, varying between Southwest and West/Northwest
Temperature 14°C
Humidity 72%
Pressure 1024 hPa
Visibility 10 km or more
Few clouds at a height of 4600 ft, Cumulonimbus.

METAR: EPSY 251500Z 27005KT 230V300 9999 FEW046CB 14/09 Q1024

Time: 05:40 (03:40 UTC)

Forecast

The report was made 13 hours and 10 minutes ago, at 14:30 UTC
Forecast valid from 25 at 15 UTC to 25 at 24 UTC
Wind 3 kt from variable directions
Visibility 10 km or more
no clouds below 1500 m and no cumulonimbus

TAF: EPSY 251430Z 2515/2524 VRB03KT CAVOK

Weather observations and forecasts of more than 4000 airports (METAR and TAF reports).

The available stations are represented by yellow and red dots on the map.

Hover mouse over dot to see the name of the station.

Then click to see weather observations and forecasts.

To change the map : click on the green buttons with a black cross to zoom in, on the green button with a dash to zoom out, or on the green arrows for adjacent maps.


METAR-TAF: